sensor_id;sensor_type;location;lat;lon;timestamp;P1;durP1;ratioP1;P2;durP2;ratioP2
37495;SDS011;23346;52.088;4.746;2023-07-31T00:02:24;206.95;;;191.40;;
37495;SDS011;23346;52.088;4.746;2023-07-31T00:04:50;75.65;;;67.95;;
37495;SDS011;23346;52.088;4.746;2023-07-31T00:07:16;82.72;;;65.43;;
37495;SDS011;23346;52.088;4.746;2023-07-31T00:09:41;129.07;;;118.45;;
37495;SDS011;23346;52.088;4.746;2023-07-31T00:12:08;79.70;;;72.20;;
37495;SDS011;23346;52.088;4.746;2023-07-31T00:14:34;73.78;;;67.07;;
37495;SDS011;23346;52.088;4.746;2023-07-31T00:16:59;66.38;;;59.95;;
37495;SDS011;23346;52.088;4.746;2023-07-31T00:19:25;138.65;;;127.97;;
37495;SDS011;23346;52.088;4.746;2023-07-31T00:21:51;153.55;;;142.70;;
37495;SDS011;23346;52.088;4.746;2023-07-31T00:24:17;103.80;;;95.90;;
37495;SDS011;23346;52.088;4.746;2023-07-31T00:26:43;154.07;;;142.05;;
37495;SDS011;23346;52.088;4.746;2023-07-31T00:29:09;77.60;;;70.95;;
37495;SDS011;23346;52.088;4.746;2023-07-31T00:31:35;109.68;;;100.25;;
37495;SDS011;23346;52.088;4.746;2023-07-31T00:34:01;73.32;;;65.55;;
37495;SDS011;23346;52.088;4.746;2023-07-31T00:36:27;71.28;;;63.92;;
37495;SDS011;23346;52.088;4.746;2023-07-31T00:38:53;80.78;;;73.90;;
37495;SDS011;23346;52.088;4.746;2023-07-31T00:41:19;122.35;;;111.78;;
37495;SDS011;23346;52.088;4.746;2023-07-31T00:43:45;102.70;;;93.25;;
37495;SDS011;23346;52.088;4.746;2023-07-31T00:46:11;74.30;;;66.72;;
37495;SDS011;23346;52.088;4.746;2023-07-31T00:48:37;70.82;;;64.38;;
37495;SDS011;23346;52.088;4.746;2023-07-31T00:51:03;95.28;;;86.22;;
37495;SDS011;23346;52.088;4.746;2023-07-31T00:53:29;80.82;;;73.20;;
37495;SDS011;23346;52.088;4.746;2023-07-31T00:55:55;75.25;;;67.35;;
37495;SDS011;23346;52.088;4.746;2023-07-31T00:58:22;75.90;;;67.13;;
37495;SDS011;23346;52.088;4.746;2023-07-31T01:00:47;81.22;;;74.03;;
37495;SDS011;23346;52.088;4.746;2023-07-31T01:03:15;85.53;;;78.38;;
37495;SDS011;23346;52.088;4.746;2023-07-31T01:08:24;97.38;;;89.43;;
37495;SDS011;23346;52.088;4.746;2023-07-31T01:10:56;91.20;;;82.65;;
37495;SDS011;23346;52.088;4.746;2023-07-31T01:13:24;71.55;;;64.07;;
37495;SDS011;23346;52.088;4.746;2023-07-31T01:15:50;69.20;;;62.17;;
37495;SDS011;23346;52.088;4.746;2023-07-31T01:18:16;94.18;;;84.68;;
37495;SDS011;23346;52.088;4.746;2023-07-31T01:20:42;74.32;;;67.32;;
37495;SDS011;23346;52.088;4.746;2023-07-31T01:23:31;184.75;;;170.50;;
37495;SDS011;23346;52.088;4.746;2023-07-31T01:26:21;109.72;;;99.80;;
37495;SDS011;23346;52.088;4.746;2023-07-31T01:29:01;105.18;;;95.75;;
37495;SDS011;23346;52.088;4.746;2023-07-31T01:31:29;75.43;;;68.40;;
37495;SDS011;23346;52.088;4.746;2023-07-31T01:33:56;81.95;;;74.13;;
37495;SDS011;23346;52.088;4.746;2023-07-31T01:36:23;88.07;;;80.47;;
37495;SDS011;23346;52.088;4.746;2023-07-31T01:38:49;74.18;;;67.75;;
37495;SDS011;23346;52.088;4.746;2023-07-31T01:41:18;80.82;;;74.18;;
37495;SDS011;23346;52.088;4.746;2023-07-31T01:43:45;132.93;;;123.10;;
37495;SDS011;23346;52.088;4.746;2023-07-31T01:46:11;73.88;;;66.78;;
37495;SDS011;23346;52.088;4.746;2023-07-31T01:48:37;98.38;;;88.95;;
37495;SDS011;23346;52.088;4.746;2023-07-31T01:51:03;77.72;;;70.53;;
37495;SDS011;23346;52.088;4.746;2023-07-31T01:53:31;88.38;;;80.00;;
37495;SDS011;23346;52.088;4.746;2023-07-31T01:55:58;113.15;;;104.30;;
37495;SDS011;23346;52.088;4.746;2023-07-31T01:58:24;132.05;;;120.97;;
37495;SDS011;23346;52.088;4.746;2023-07-31T02:00:50;98.15;;;89.85;;
37495;SDS011;23346;52.088;4.746;2023-07-31T02:03:16;111.38;;;100.13;;
37495;SDS011;23346;52.088;4.746;2023-07-31T02:05:45;93.80;;;85.22;;
37495;SDS011;23346;52.088;4.746;2023-07-31T02:08:11;89.25;;;80.90;;
37495;SDS011;23346;52.088;4.746;2023-07-31T02:10:37;91.22;;;82.50;;
37495;SDS011;23346;52.088;4.746;2023-07-31T02:13:03;103.70;;;94.07;;
37495;SDS011;23346;52.088;4.746;2023-07-31T02:15:29;87.65;;;79.22;;
37495;SDS011;23346;52.088;4.746;2023-07-31T02:17:55;87.15;;;80.10;;
37495;SDS011;23346;52.088;4.746;2023-07-31T02:20:21;94.53;;;83.80;;
37495;SDS011;23346;52.088;4.746;2023-07-31T02:22:47;85.50;;;76.88;;
37495;SDS011;23346;52.088;4.746;2023-07-31T02:25:13;87.68;;;78.78;;
37495;SDS011;23346;52.088;4.746;2023-07-31T02:27:39;82.10;;;73.70;;
37495;SDS011;23346;52.088;4.746;2023-07-31T02:30:06;96.93;;;87.90;;
37495;SDS011;23346;52.088;4.746;2023-07-31T02:32:32;104.30;;;93.78;;
37495;SDS011;23346;52.088;4.746;2023-07-31T02:34:58;95.00;;;85.60;;
37495;SDS011;23346;52.088;4.746;2023-07-31T02:37:24;83.22;;;73.20;;
37495;SDS011;23346;52.088;4.746;2023-07-31T02:39:50;94.15;;;84.25;;
37495;SDS011;23346;52.088;4.746;2023-07-31T02:42:16;81.20;;;72.35;;
37495;SDS011;23346;52.088;4.746;2023-07-31T02:44:42;81.95;;;68.97;;
37495;SDS011;23346;52.088;4.746;2023-07-31T02:47:08;86.60;;;68.22;;
37495;SDS011;23346;52.088;4.746;2023-07-31T02:49:34;111.32;;;100.18;;
37495;SDS011;23346;52.088;4.746;2023-07-31T02:52:00;80.72;;;71.72;;
37495;SDS011;23346;52.088;4.746;2023-07-31T02:54:26;95.30;;;86.60;;
37495;SDS011;23346;52.088;4.746;2023-07-31T02:56:52;72.93;;;64.35;;
37495;SDS011;23346;52.088;4.746;2023-07-31T02:59:18;201.65;;;185.23;;
37495;SDS011;23346;52.088;4.746;2023-07-31T03:01:44;88.75;;;80.20;;
37495;SDS011;23346;52.088;4.746;2023-07-31T03:04:10;82.43;;;73.72;;
37495;SDS011;23346;52.088;4.746;2023-07-31T03:06:36;87.38;;;79.45;;
37495;SDS011;23346;52.088;4.746;2023-07-31T03:09:02;72.93;;;65.20;;
37495;SDS011;23346;52.088;4.746;2023-07-31T03:11:27;124.47;;;112.95;;
37495;SDS011;23346;52.088;4.746;2023-07-31T03:13:53;72.85;;;64.63;;
37495;SDS011;23346;52.088;4.746;2023-07-31T03:16:19;74.25;;;66.28;;
37495;SDS011;23346;52.088;4.746;2023-07-31T03:18:45;73.63;;;65.97;;
37495;SDS011;23346;52.088;4.746;2023-07-31T03:21:12;78.32;;;70.90;;
37495;SDS011;23346;52.088;4.746;2023-07-31T03:23:38;86.43;;;77.15;;
37495;SDS011;23346;52.088;4.746;2023-07-31T03:26:05;156.80;;;142.10;;
37495;SDS011;23346;52.088;4.746;2023-07-31T03:28:31;84.65;;;76.78;;
37495;SDS011;23346;52.088;4.746;2023-07-31T03:30:57;81.38;;;68.78;;
37495;SDS011;23346;52.088;4.746;2023-07-31T03:33:23;119.25;;;109.40;;
37495;SDS011;23346;52.088;4.746;2023-07-31T03:35:49;79.75;;;72.03;;
37495;SDS011;23346;52.088;4.746;2023-07-31T03:38:15;181.32;;;166.50;;
37495;SDS011;23346;52.088;4.746;2023-07-31T03:40:41;103.25;;;92.68;;
37495;SDS011;23346;52.088;4.746;2023-07-31T03:43:07;71.78;;;64.22;;
37495;SDS011;23346;52.088;4.746;2023-07-31T03:45:33;124.57;;;113.22;;
37495;SDS011;23346;52.088;4.746;2023-07-31T03:47:59;94.75;;;86.45;;
37495;SDS011;23346;52.088;4.746;2023-07-31T03:50:25;69.88;;;62.85;;
37495;SDS011;23346;52.088;4.746;2023-07-31T03:52:51;90.80;;;81.93;;
37495;SDS011;23346;52.088;4.746;2023-07-31T03:55:17;77.10;;;68.90;;
37495;SDS011;23346;52.088;4.746;2023-07-31T03:57:43;91.78;;;82.18;;
37495;SDS011;23346;52.088;4.746;2023-07-31T04:00:09;73.50;;;66.97;;
37495;SDS011;23346;52.088;4.746;2023-07-31T04:02:35;127.90;;;117.03;;
37495;SDS011;23346;52.088;4.746;2023-07-31T04:05:01;75.28;;;67.05;;
37495;SDS011;23346;52.088;4.746;2023-07-31T04:07:27;90.40;;;81.80;;
37495;SDS011;23346;52.088;4.746;2023-07-31T04:09:53;88.82;;;80.95;;
37495;SDS011;23346;52.088;4.746;2023-07-31T04:12:19;81.53;;;73.47;;
37495;SDS011;23346;52.088;4.746;2023-07-31T04:14:45;72.57;;;65.88;;
37495;SDS011;23346;52.088;4.746;2023-07-31T04:17:11;82.88;;;75.00;;
37495;SDS011;23346;52.088;4.746;2023-07-31T04:19:37;78.05;;;71.32;;
37495;SDS011;23346;52.088;4.746;2023-07-31T04:22:03;79.30;;;71.82;;
37495;SDS011;23346;52.088;4.746;2023-07-31T04:24:29;83.80;;;76.28;;
37495;SDS011;23346;52.088;4.746;2023-07-31T04:26:55;83.32;;;76.03;;
37495;SDS011;23346;52.088;4.746;2023-07-31T04:29:21;89.70;;;82.18;;
37495;SDS011;23346;52.088;4.746;2023-07-31T04:31:47;72.30;;;65.88;;
37495;SDS011;23346;52.088;4.746;2023-07-31T04:34:13;69.32;;;62.95;;
37495;SDS011;23346;52.088;4.746;2023-07-31T04:36:39;89.20;;;82.13;;
37495;SDS011;23346;52.088;4.746;2023-07-31T04:39:05;72.97;;;66.65;;
37495;SDS011;23346;52.088;4.746;2023-07-31T04:41:31;73.47;;;67.55;;
37495;SDS011;23346;52.088;4.746;2023-07-31T04:43:57;76.93;;;70.75;;
37495;SDS011;23346;52.088;4.746;2023-07-31T04:46:23;75.55;;;69.35;;
37495;SDS011;23346;52.088;4.746;2023-07-31T04:48:49;61.35;;;56.67;;
37495;SDS011;23346;52.088;4.746;2023-07-31T04:51:15;66.85;;;61.58;;
37495;SDS011;23346;52.088;4.746;2023-07-31T04:53:41;73.97;;;67.78;;
37495;SDS011;23346;52.088;4.746;2023-07-31T04:56:07;64.20;;;59.28;;
37495;SDS011;23346;52.088;4.746;2023-07-31T04:58:33;77.80;;;73.07;;
37495;SDS011;23346;52.088;4.746;2023-07-31T05:00:59;64.47;;;60.15;;
37495;SDS011;23346;52.088;4.746;2023-07-31T05:03:25;82.20;;;77.45;;
37495;SDS011;23346;52.088;4.746;2023-07-31T05:05:51;76.88;;;71.65;;
37495;SDS011;23346;52.088;4.746;2023-07-31T05:08:16;75.93;;;70.65;;
37495;SDS011;23346;52.088;4.746;2023-07-31T05:10:43;85.43;;;79.90;;
37495;SDS011;23346;52.088;4.746;2023-07-31T05:13:08;70.13;;;65.90;;
37495;SDS011;23346;52.088;4.746;2023-07-31T05:15:34;77.65;;;73.00;;
37495;SDS011;23346;52.088;4.746;2023-07-31T05:18:00;68.93;;;63.88;;
37495;SDS011;23346;52.088;4.746;2023-07-31T05:20:26;67.65;;;63.22;;
37495;SDS011;23346;52.088;4.746;2023-07-31T05:22:52;69.30;;;64.78;;
37495;SDS011;23346;52.088;4.746;2023-07-31T05:25:19;60.25;;;56.42;;
37495;SDS011;23346;52.088;4.746;2023-07-31T05:27:45;64.20;;;59.88;;
37495;SDS011;23346;52.088;4.746;2023-07-31T05:30:11;65.13;;;60.97;;
37495;SDS011;23346;52.088;4.746;2023-07-31T05:32:37;73.95;;;69.05;;
37495;SDS011;23346;52.088;4.746;2023-07-31T05:35:03;64.88;;;60.38;;
37495;SDS011;23346;52.088;4.746;2023-07-31T05:37:29;64.72;;;60.28;;
37495;SDS011;23346;52.088;4.746;2023-07-31T05:39:54;63.17;;;58.83;;
37495;SDS011;23346;52.088;4.746;2023-07-31T05:42:20;71.00;;;66.30;;
37495;SDS011;23346;52.088;4.746;2023-07-31T05:44:46;64.63;;;60.33;;
37495;SDS011;23346;52.088;4.746;2023-07-31T05:47:12;64.95;;;60.63;;
37495;SDS011;23346;52.088;4.746;2023-07-31T05:49:38;63.47;;;58.63;;
37495;SDS011;23346;52.088;4.746;2023-07-31T05:52:04;81.45;;;75.75;;
37495;SDS011;23346;52.088;4.746;2023-07-31T05:54:31;61.30;;;56.80;;
37495;SDS011;23346;52.088;4.746;2023-07-31T05:56:57;63.83;;;59.15;;
37495;SDS011;23346;52.088;4.746;2023-07-31T05:59:23;52.38;;;49.42;;
37495;SDS011;23346;52.088;4.746;2023-07-31T06:01:49;51.65;;;48.28;;
37495;SDS011;23346;52.088;4.746;2023-07-31T06:04:15;48.03;;;44.97;;
37495;SDS011;23346;52.088;4.746;2023-07-31T06:06:41;51.58;;;48.38;;
37495;SDS011;23346;52.088;4.746;2023-07-31T06:09:07;48.75;;;45.45;;
37495;SDS011;23346;52.088;4.746;2023-07-31T06:11:33;63.22;;;58.72;;
37495;SDS011;23346;52.088;4.746;2023-07-31T06:13:59;52.40;;;49.00;;
37495;SDS011;23346;52.088;4.746;2023-07-31T06:16:25;60.53;;;56.53;;
37495;SDS011;23346;52.088;4.746;2023-07-31T06:18:52;60.88;;;56.83;;
37495;SDS011;23346;52.088;4.746;2023-07-31T06:21:18;59.17;;;55.65;;
37495;SDS011;23346;52.088;4.746;2023-07-31T06:23:44;52.72;;;49.55;;
37495;SDS011;23346;52.088;4.746;2023-07-31T06:26:10;86.47;;;81.05;;
37495;SDS011;23346;52.088;4.746;2023-07-31T06:28:35;50.33;;;47.17;;
37495;SDS011;23346;52.088;4.746;2023-07-31T06:31:01;62.30;;;58.70;;
37495;SDS011;23346;52.088;4.746;2023-07-31T06:33:27;53.58;;;50.42;;
37495;SDS011;23346;52.088;4.746;2023-07-31T06:35:53;69.65;;;65.43;;
37495;SDS011;23346;52.088;4.746;2023-07-31T06:38:21;45.30;;;42.05;;
37495;SDS011;23346;52.088;4.746;2023-07-31T06:40:47;69.88;;;65.25;;
37495;SDS011;23346;52.088;4.746;2023-07-31T06:43:14;45.47;;;42.45;;
37495;SDS011;23346;52.088;4.746;2023-07-31T06:45:40;40.83;;;38.25;;
37495;SDS011;23346;52.088;4.746;2023-07-31T06:48:06;57.92;;;54.47;;
37495;SDS011;23346;52.088;4.746;2023-07-31T06:50:32;46.50;;;43.55;;
37495;SDS011;23346;52.088;4.746;2023-07-31T06:52:58;39.03;;;36.55;;
37495;SDS011;23346;52.088;4.746;2023-07-31T06:55:24;53.45;;;50.63;;
37495;SDS011;23346;52.088;4.746;2023-07-31T06:57:51;48.67;;;45.92;;
37495;SDS011;23346;52.088;4.746;2023-07-31T07:00:17;34.47;;;32.58;;
37495;SDS011;23346;52.088;4.746;2023-07-31T07:02:43;43.45;;;41.05;;
37495;SDS011;23346;52.088;4.746;2023-07-31T07:05:09;42.03;;;39.47;;
37495;SDS011;23346;52.088;4.746;2023-07-31T07:07:36;39.00;;;36.88;;
37495;SDS011;23346;52.088;4.746;2023-07-31T07:10:02;47.28;;;44.75;;
37495;SDS011;23346;52.088;4.746;2023-07-31T07:12:29;38.72;;;36.50;;
37495;SDS011;23346;52.088;4.746;2023-07-31T07:14:55;81.57;;;76.68;;
37495;SDS011;23346;52.088;4.746;2023-07-31T07:17:22;41.90;;;39.45;;
37495;SDS011;23346;52.088;4.746;2023-07-31T07:19:48;64.90;;;61.05;;
37495;SDS011;23346;52.088;4.746;2023-07-31T07:22:14;94.50;;;88.68;;
37495;SDS011;23346;52.088;4.746;2023-07-31T07:24:40;47.13;;;44.50;;
37495;SDS011;23346;52.088;4.746;2023-07-31T07:27:06;35.78;;;33.85;;
37495;SDS011;23346;52.088;4.746;2023-07-31T07:29:35;43.53;;;40.97;;
37495;SDS011;23346;52.088;4.746;2023-07-31T07:32:01;52.75;;;49.75;;
37495;SDS011;23346;52.088;4.746;2023-07-31T07:34:27;47.60;;;45.20;;
37495;SDS011;23346;52.088;4.746;2023-07-31T07:36:53;61.97;;;58.80;;
37495;SDS011;23346;52.088;4.746;2023-07-31T07:39:19;43.90;;;41.60;;
37495;SDS011;23346;52.088;4.746;2023-07-31T07:41:46;41.67;;;39.17;;
37495;SDS011;23346;52.088;4.746;2023-07-31T07:44:12;51.80;;;48.83;;
37495;SDS011;23346;52.088;4.746;2023-07-31T07:46:38;50.17;;;47.55;;
37495;SDS011;23346;52.088;4.746;2023-07-31T07:49:04;39.33;;;37.33;;
37495;SDS011;23346;52.088;4.746;2023-07-31T07:51:30;43.00;;;40.22;;
37495;SDS011;23346;52.088;4.746;2023-07-31T07:53:57;45.28;;;42.88;;
37495;SDS011;23346;52.088;4.746;2023-07-31T07:56:23;50.60;;;48.08;;
37495;SDS011;23346;52.088;4.746;2023-07-31T07:58:49;47.10;;;44.40;;
37495;SDS011;23346;52.088;4.746;2023-07-31T08:01:16;45.83;;;43.42;;
37495;SDS011;23346;52.088;4.746;2023-07-31T08:03:42;48.35;;;45.63;;
37495;SDS011;23346;52.088;4.746;2023-07-31T08:06:08;72.63;;;68.32;;
37495;SDS011;23346;52.088;4.746;2023-07-31T08:08:35;43.10;;;40.83;;
37495;SDS011;23346;52.088;4.746;2023-07-31T08:11:01;112.63;;;106.55;;
37495;SDS011;23346;52.088;4.746;2023-07-31T08:13:27;41.72;;;39.42;;
37495;SDS011;23346;52.088;4.746;2023-07-31T08:15:53;39.75;;;37.75;;
37495;SDS011;23346;52.088;4.746;2023-07-31T08:18:19;45.40;;;42.95;;
37495;SDS011;23346;52.088;4.746;2023-07-31T08:20:45;55.85;;;52.50;;
37495;SDS011;23346;52.088;4.746;2023-07-31T08:23:11;40.38;;;38.22;;
37495;SDS011;23346;52.088;4.746;2023-07-31T08:25:37;44.33;;;42.00;;
37495;SDS011;23346;52.088;4.746;2023-07-31T08:28:04;54.30;;;51.47;;
37495;SDS011;23346;52.088;4.746;2023-07-31T08:30:30;78.80;;;74.75;;
37495;SDS011;23346;52.088;4.746;2023-07-31T08:32:56;45.95;;;43.75;;
37495;SDS011;23346;52.088;4.746;2023-07-31T08:35:23;46.22;;;43.92;;
37495;SDS011;23346;52.088;4.746;2023-07-31T08:37:50;47.72;;;45.30;;
37495;SDS011;23346;52.088;4.746;2023-07-31T08:40:15;83.22;;;78.28;;
37495;SDS011;23346;52.088;4.746;2023-07-31T08:42:45;59.60;;;56.28;;
37495;SDS011;23346;52.088;4.746;2023-07-31T08:45:15;106.10;;;100.50;;
37495;SDS011;23346;52.088;4.746;2023-07-31T08:47:42;58.95;;;55.67;;
37495;SDS011;23346;52.088;4.746;2023-07-31T08:50:08;97.47;;;91.97;;
37495;SDS011;23346;52.088;4.746;2023-07-31T08:52:35;52.35;;;49.33;;
37495;SDS011;23346;52.088;4.746;2023-07-31T08:55:01;58.63;;;55.47;;
37495;SDS011;23346;52.088;4.746;2023-07-31T08:57:27;39.33;;;37.15;;
37495;SDS011;23346;52.088;4.746;2023-07-31T08:59:53;49.80;;;47.35;;
37495;SDS011;23346;52.088;4.746;2023-07-31T09:02:20;42.70;;;40.53;;
37495;SDS011;23346;52.088;4.746;2023-07-31T09:04:46;57.05;;;54.10;;
37495;SDS011;23346;52.088;4.746;2023-07-31T09:07:12;44.92;;;42.53;;
37495;SDS011;23346;52.088;4.746;2023-07-31T09:09:40;112.32;;;106.05;;
37495;SDS011;23346;52.088;4.746;2023-07-31T09:12:06;39.53;;;37.67;;
37495;SDS011;23346;52.088;4.746;2023-07-31T09:14:32;59.35;;;55.75;;
37495;SDS011;23346;52.088;4.746;2023-07-31T09:16:59;41.17;;;39.08;;
37495;SDS011;23346;52.088;4.746;2023-07-31T09:19:34;39.80;;;37.50;;
37495;SDS011;23346;52.088;4.746;2023-07-31T09:22:05;54.33;;;50.47;;
37495;SDS011;23346;52.088;4.746;2023-07-31T09:24:32;59.08;;;56.05;;
37495;SDS011;23346;52.088;4.746;2023-07-31T09:26:59;69.18;;;65.22;;
37495;SDS011;23346;52.088;4.746;2023-07-31T09:29:25;92.97;;;87.45;;
37495;SDS011;23346;52.088;4.746;2023-07-31T09:31:52;71.95;;;67.45;;
37495;SDS011;23346;52.088;4.746;2023-07-31T09:34:18;70.38;;;65.95;;
37495;SDS011;23346;52.088;4.746;2023-07-31T09:36:45;60.20;;;56.30;;
37495;SDS011;23346;52.088;4.746;2023-07-31T09:39:12;43.47;;;40.35;;
37495;SDS011;23346;52.088;4.746;2023-07-31T09:41:38;64.78;;;60.50;;
37495;SDS011;23346;52.088;4.746;2023-07-31T09:44:05;48.75;;;46.05;;
37495;SDS011;23346;52.088;4.746;2023-07-31T09:46:31;68.93;;;64.40;;
37495;SDS011;23346;52.088;4.746;2023-07-31T09:49:06;80.80;;;75.43;;
37495;SDS011;23346;52.088;4.746;2023-07-31T09:51:34;60.80;;;56.75;;
37495;SDS011;23346;52.088;4.746;2023-07-31T09:54:04;78.88;;;74.30;;
37495;SDS011;23346;52.088;4.746;2023-07-31T09:56:29;47.55;;;44.40;;
37495;SDS011;23346;52.088;4.746;2023-07-31T09:58:56;63.00;;;59.22;;
37495;SDS011;23346;52.088;4.746;2023-07-31T10:01:22;52.50;;;49.38;;
37495;SDS011;23346;52.088;4.746;2023-07-31T10:03:48;45.92;;;43.25;;
37495;SDS011;23346;52.088;4.746;2023-07-31T10:06:15;83.00;;;78.30;;
37495;SDS011;23346;52.088;4.746;2023-07-31T10:08:43;87.70;;;82.82;;
37495;SDS011;23346;52.088;4.746;2023-07-31T10:11:11;61.88;;;58.47;;
37495;SDS011;23346;52.088;4.746;2023-07-31T10:13:39;69.75;;;65.55;;
37495;SDS011;23346;52.088;4.746;2023-07-31T10:16:06;78.88;;;73.93;;
37495;SDS011;23346;52.088;4.746;2023-07-31T10:18:32;63.03;;;59.22;;
37495;SDS011;23346;52.088;4.746;2023-07-31T10:20:59;78.63;;;73.90;;
37495;SDS011;23346;52.088;4.746;2023-07-31T10:23:25;61.88;;;57.78;;
37495;SDS011;23346;52.088;4.746;2023-07-31T10:25:51;73.65;;;69.35;;
37495;SDS011;23346;52.088;4.746;2023-07-31T10:28:19;155.10;;;145.63;;
37495;SDS011;23346;52.088;4.746;2023-07-31T10:30:46;58.55;;;54.95;;
37495;SDS011;23346;52.088;4.746;2023-07-31T10:33:11;82.10;;;77.53;;
37495;SDS011;23346;52.088;4.746;2023-07-31T10:35:37;77.75;;;73.45;;
37495;SDS011;23346;52.088;4.746;2023-07-31T10:38:10;60.60;;;57.00;;
37495;SDS011;23346;52.088;4.746;2023-07-31T10:40:37;69.85;;;65.72;;
37495;SDS011;23346;52.088;4.746;2023-07-31T10:43:03;73.55;;;68.90;;
37495;SDS011;23346;52.088;4.746;2023-07-31T10:48:00;68.60;;;63.97;;
37495;SDS011;23346;52.088;4.746;2023-07-31T10:50:26;69.32;;;65.00;;
37495;SDS011;23346;52.088;4.746;2023-07-31T10:52:53;82.85;;;78.00;;
37495;SDS011;23346;52.088;4.746;2023-07-31T10:55:32;67.70;;;63.53;;
37495;SDS011;23346;52.088;4.746;2023-07-31T10:58:11;63.85;;;59.78;;
37495;SDS011;23346;52.088;4.746;2023-07-31T11:00:38;72.47;;;67.22;;
37495;SDS011;23346;52.088;4.746;2023-07-31T11:05:40;62.85;;;57.80;;
37495;SDS011;23346;52.088;4.746;2023-07-31T11:10:38;67.60;;;63.22;;
37495;SDS011;23346;52.088;4.746;2023-07-31T11:13:04;54.78;;;50.47;;
37495;SDS011;23346;52.088;4.746;2023-07-31T11:15:30;49.30;;;45.97;;
37495;SDS011;23346;52.088;4.746;2023-07-31T11:17:56;56.03;;;52.10;;
37495;SDS011;23346;52.088;4.746;2023-07-31T11:20:23;48.65;;;44.60;;
37495;SDS011;23346;52.088;4.746;2023-07-31T11:22:49;78.18;;;73.03;;
37495;SDS011;23346;52.088;4.746;2023-07-31T11:25:15;49.17;;;46.00;;
37495;SDS011;23346;52.088;4.746;2023-07-31T11:27:41;53.90;;;50.17;;
37495;SDS011;23346;52.088;4.746;2023-07-31T11:30:08;53.63;;;50.08;;
37495;SDS011;23346;52.088;4.746;2023-07-31T11:32:37;63.30;;;58.58;;
37495;SDS011;23346;52.088;4.746;2023-07-31T11:35:03;54.08;;;50.42;;
37495;SDS011;23346;52.088;4.746;2023-07-31T11:37:43;67.15;;;62.65;;
37495;SDS011;23346;52.088;4.746;2023-07-31T11:40:10;62.38;;;58.70;;
37495;SDS011;23346;52.088;4.746;2023-07-31T11:42:36;103.72;;;96.95;;
37495;SDS011;23346;52.088;4.746;2023-07-31T11:45:06;188.82;;;176.85;;
37495;SDS011;23346;52.088;4.746;2023-07-31T11:47:33;92.47;;;87.20;;
37495;SDS011;23346;52.088;4.746;2023-07-31T11:50:02;67.60;;;63.60;;
37495;SDS011;23346;52.088;4.746;2023-07-31T11:52:36;59.60;;;55.88;;
37495;SDS011;23346;52.088;4.746;2023-07-31T11:55:03;121.07;;;113.32;;
37495;SDS011;23346;52.088;4.746;2023-07-31T11:57:30;66.25;;;61.28;;
37495;SDS011;23346;52.088;4.746;2023-07-31T11:59:56;57.95;;;53.58;;
37495;SDS011;23346;52.088;4.746;2023-07-31T12:02:22;52.15;;;48.83;;
37495;SDS011;23346;52.088;4.746;2023-07-31T12:04:49;59.80;;;56.03;;
37495;SDS011;23346;52.088;4.746;2023-07-31T12:07:15;54.45;;;50.80;;
37495;SDS011;23346;52.088;4.746;2023-07-31T12:09:53;103.93;;;97.60;;
37495;SDS011;23346;52.088;4.746;2023-07-31T12:12:22;147.07;;;137.27;;
37495;SDS011;23346;52.088;4.746;2023-07-31T12:14:49;60.63;;;57.28;;
37495;SDS011;23346;52.088;4.746;2023-07-31T12:17:16;101.18;;;95.20;;
37495;SDS011;23346;52.088;4.746;2023-07-31T12:19:42;86.82;;;81.53;;
37495;SDS011;23346;52.088;4.746;2023-07-31T12:22:12;77.60;;;72.97;;
37495;SDS011;23346;52.088;4.746;2023-07-31T12:24:38;62.50;;;58.58;;
37495;SDS011;23346;52.088;4.746;2023-07-31T12:27:08;81.15;;;76.20;;
37495;SDS011;23346;52.088;4.746;2023-07-31T12:29:34;68.20;;;63.88;;
37495;SDS011;23346;52.088;4.746;2023-07-31T12:32:01;98.30;;;92.25;;
37495;SDS011;23346;52.088;4.746;2023-07-31T12:34:27;76.78;;;72.65;;
37495;SDS011;23346;52.088;4.746;2023-07-31T12:36:53;69.75;;;65.70;;
37495;SDS011;23346;52.088;4.746;2023-07-31T12:39:19;70.35;;;66.47;;
37495;SDS011;23346;52.088;4.746;2023-07-31T12:41:45;70.18;;;66.35;;
37495;SDS011;23346;52.088;4.746;2023-07-31T12:44:11;74.45;;;70.15;;
37495;SDS011;23346;52.088;4.746;2023-07-31T12:46:37;60.00;;;56.38;;
37495;SDS011;23346;52.088;4.746;2023-07-31T12:49:03;47.63;;;45.17;;
37495;SDS011;23346;52.088;4.746;2023-07-31T12:51:29;45.97;;;43.33;;
37495;SDS011;23346;52.088;4.746;2023-07-31T12:53:55;47.75;;;44.53;;
37495;SDS011;23346;52.088;4.746;2023-07-31T12:56:21;103.65;;;97.82;;
37495;SDS011;23346;52.088;4.746;2023-07-31T12:58:47;46.10;;;43.58;;
37495;SDS011;23346;52.088;4.746;2023-07-31T13:01:13;66.93;;;62.83;;
37495;SDS011;23346;52.088;4.746;2023-07-31T13:03:39;133.90;;;126.90;;
37495;SDS011;23346;52.088;4.746;2023-07-31T13:06:05;134.80;;;127.82;;
37495;SDS011;23346;52.088;4.746;2023-07-31T13:08:31;189.43;;;179.50;;
37495;SDS011;23346;52.088;4.746;2023-07-31T13:10:57;234.65;;;222.88;;
37495;SDS011;23346;52.088;4.746;2023-07-31T13:13:23;249.43;;;235.88;;
37495;SDS011;23346;52.088;4.746;2023-07-31T13:15:49;206.43;;;196.32;;
37495;SDS011;23346;52.088;4.746;2023-07-31T13:18:14;221.73;;;210.48;;
37495;SDS011;23346;52.088;4.746;2023-07-31T13:20:40;219.48;;;207.93;;
37495;SDS011;23346;52.088;4.746;2023-07-31T13:23:06;127.30;;;121.32;;
37495;SDS011;23346;52.088;4.746;2023-07-31T13:25:32;132.75;;;126.45;;
37495;SDS011;23346;52.088;4.746;2023-07-31T13:27:58;142.20;;;135.40;;
37495;SDS011;23346;52.088;4.746;2023-07-31T13:30:24;135.05;;;128.02;;
37495;SDS011;23346;52.088;4.746;2023-07-31T13:32:50;123.93;;;117.57;;
37495;SDS011;23346;52.088;4.746;2023-07-31T13:35:16;132.32;;;125.80;;
37495;SDS011;23346;52.088;4.746;2023-07-31T13:37:42;112.68;;;107.18;;
37495;SDS011;23346;52.088;4.746;2023-07-31T13:40:08;105.20;;;100.00;;
37495;SDS011;23346;52.088;4.746;2023-07-31T13:42:34;126.22;;;119.93;;
37495;SDS011;23346;52.088;4.746;2023-07-31T13:45:00;120.50;;;114.13;;
37495;SDS011;23346;52.088;4.746;2023-07-31T13:47:26;133.32;;;126.32;;
37495;SDS011;23346;52.088;4.746;2023-07-31T13:49:52;119.32;;;113.50;;
37495;SDS011;23346;52.088;4.746;2023-07-31T13:52:18;148.43;;;140.57;;
37495;SDS011;23346;52.088;4.746;2023-07-31T13:54:44;122.35;;;116.38;;
37495;SDS011;23346;52.088;4.746;2023-07-31T13:57:10;131.85;;;125.40;;
37495;SDS011;23346;52.088;4.746;2023-07-31T13:59:36;131.77;;;125.50;;
37495;SDS011;23346;52.088;4.746;2023-07-31T14:02:02;127.95;;;121.65;;
37495;SDS011;23346;52.088;4.746;2023-07-31T14:04:28;133.07;;;126.32;;
37495;SDS011;23346;52.088;4.746;2023-07-31T14:06:55;147.82;;;139.93;;
37495;SDS011;23346;52.088;4.746;2023-07-31T14:09:21;119.07;;;113.38;;
37495;SDS011;23346;52.088;4.746;2023-07-31T14:11:47;113.57;;;108.15;;
37495;SDS011;23346;52.088;4.746;2023-07-31T14:14:13;117.85;;;112.22;;
37495;SDS011;23346;52.088;4.746;2023-07-31T14:16:39;129.05;;;122.32;;
37495;SDS011;23346;52.088;4.746;2023-07-31T14:19:05;114.75;;;108.90;;
37495;SDS011;23346;52.088;4.746;2023-07-31T14:21:33;109.13;;;103.65;;
37495;SDS011;23346;52.088;4.746;2023-07-31T14:23:59;107.45;;;101.93;;